METAR Data
IDs: Format: Raw Decoded Include TAF

Data at: 0514 UTC 24 Sep 2018

KCUL 240451Z AUTO 08004KT 3SM +RA OVC005 18/18 A3004 RMK AO2 P0006
KCUL 240431Z AUTO 08003KT 4SM BR OVC005 18/18 A3004 RMK AO2 P0001
KCUL 240412Z AUTO 07004KT 3SM DZ BKN005 BKN012 OVC017 18/18 A3004 RMK AO2 P0001
KCUL 240353Z AUTO 06005KT 5SM RA BKN007 OVC017 18/18 A3004 RMK AO2
KCUL 240332Z AUTO 08005KT 10SM BKN007 OVC016 18/18 A3004 RMK AO2
KCUL 240312Z AUTO 07004KT 7SM -DZ OVC005 18/18 A3004 RMK AO2
KCUL 240253Z AUTO 06005KT 7SM SCT007 OVC019 18/18 A3004 RMK AO2
KCUL 240231Z AUTO 08006KT 10SM -RA OVC019 18/18 A3004 RMK AO2
KCUL 240212Z AUTO 08007KT 10SM BKN012 OVC019 19/18 A3004 RMK AO2
KCUL 240151Z AUTO 09008KT 10SM OVC014 19/18 A3004 RMK AO2
KCUL 240132Z AUTO 09007KT 10SM OVC014 19/18 A3004 RMK AO2
KCUL 240111Z AUTO 11007KT 10SM OVC016 20/18 A3004 RMK AO2
KCUL 240051Z AUTO 10008KT 10SM OVC016 20/18 A3002 RMK AO2
KCUL 240031Z AUTO 09005KT 10SM OVC016 20/18 A3002 RMK AO2
KCUL 240011Z AUTO 11005KT 10SM OVC021 20/18 A3002 RMK AO2
KCUL 232351Z AUTO 11007KT 10SM BKN025 OVC029 21/18 A3002 RMK AO2
KCUL 232331Z AUTO 10007KT 10SM OVC027 21/18 A3002 RMK AO2
KCUL 232311Z AUTO 11007KT 10SM BKN027 OVC100 21/18 A3002 RMK AO2
KCUL 232251Z AUTO 11007KT 10SM SCT025 OVC100 21/18 A3002 RMK AO2
KCUL 232231Z AUTO 10008KT 10SM SCT026 SCT049 OVC100 22/18 A3002 RMK AO2
KCUL 232211Z AUTO 10009KT 10SM BKN024 OVC049 22/18 A3002 RMK AO2
KCUL 232151Z AUTO 09010KT 10SM BKN024 BKN095 22/18 A3002 RMK AO2
KCUL 232131Z AUTO 09011KT 10SM CLR 23/18 A3002 RMK AO2
KCUL 232113Z AUTO 09010KT 10SM BKN060 23/18 A3002 RMK AO2
KCUL 232052Z AUTO 09010KT 10SM OVC060 24/18 A3002 RMK AO2
KCUL 232031Z AUTO 09010KT 10SM SCT046 OVC060 24/18 A3002 RMK AO2
KCUL 232011Z AUTO 08010KT 10SM SCT027 SCT033 OVC046 24/18 A3002 RMK AO2
KCUL 231951Z AUTO 11008KT 10SM OVC030 24/18 A3002 RMK AO2
KCUL 231933Z AUTO 09008KT 10SM OVC030 24/18 A3003 RMK AO2
KCUL 231912Z AUTO 09010KT 10SM BKN028 OVC048 25/18 A3004 RMK AO2
KCUL 231851Z AUTO 09007KT 10SM BKN026 OVC048 24/18 A3005 RMK AO2
KCUL 231833Z AUTO 09009KT 10SM BKN026 BKN030 OVC070 24/18 A3005 RMK AO2
KCUL 231811Z AUTO 06007KT 10SM SCT022 OVC070 24/18 A3006 RMK AO2
KCUL 231753Z AUTO 06008KT 10SM SCT055 OVC070 23/18 A3006 RMK AO2
KCUL 231731Z AUTO 03006KT 10SM SCT016 OVC055 23/18 A3007 RMK AO2
KCUL 231712Z AUTO 07007KT 10SM SCT016 OVC055 23/18 A3007 RMK AO2
KCUL 231651Z AUTO 05006KT 10SM SCT014 OVC055 22/17 A3008 RMK AO2
KCUL 231631Z AUTO 05004KT 10SM BKN014 OVC065 21/17 A3009 RMK AO2
KCUL 231611Z AUTO 05003KT 10SM SCT012 BKN065 21/17 A3009 RMK AO2
KCUL 231551Z AUTO 02005KT 10SM BKN010 BKN065 20/17 A3009 RMK AO2
KCUL 231531Z AUTO 06004KT 10SM OVC010 19/17 A3009 RMK AO2
KCUL 231511Z AUTO 05005KT 10SM OVC010 19/17 A3009 RMK AO2
KCUL 231451Z AUTO 06006KT 10SM OVC008 19/17 A3009 RMK AO2
KCUL 231431Z AUTO 04006KT 10SM OVC008 18/16 A3009 RMK AO2
KCUL 231411Z AUTO 04005KT 10SM 17/16 A3009 RMK AO2
KCUL 231351Z AUTO 04005KT 10SM OVC008 17/16 A3009 RMK AO2
KCUL 231331Z AUTO 03005KT 10SM OVC008 17/16 A3009 RMK AO2
KCUL 231311Z AUTO 00000KT 10SM OVC008 16/16 A3009 RMK AO2
KCUL 231252Z AUTO 00000KT 7SM BKN010 OVC020 16/16 A3009 RMK AO2
KCUL 231233Z AUTO 00000KT 7SM SCT010 OVC020 16/16 A3008 RMK AO2
KCUL 231213Z AUTO 01003KT 7SM SCT010 OVC020 16/16 A3008 RMK AO2
KCUL 231153Z AUTO 02004KT 7SM SCT010 OVC020 16/15 A3007 RMK AO2
KCUL 231133Z AUTO 01004KT 7SM BKN008 OVC020 16/15 A3007 RMK AO2
KCUL 231111Z AUTO 01004KT 7SM BKN008 BKN013 OVC020 16/16 A3006 RMK AO2
KCUL 231051Z AUTO 04005KT 10SM SCT010 BKN018 OVC034 16/16 A3006 RMK AO2
KCUL 231031Z AUTO 04005KT 10SM BKN018 OVC034 16/16 A3006 RMK AO2
KCUL 231011Z AUTO 05005KT 10SM OVC018 16/16 A3006 RMK AO2
KCUL 230951Z AUTO 05004KT 10SM SCT009 OVC018 16/16 A3005 RMK AO2
KCUL 230931Z AUTO 00000KT 10SM OVC018 16/16 A3006 RMK AO2
KCUL 230911Z AUTO 02003KT 10SM OVC018 16/16 A3006 RMK AO2
KCUL 230851Z AUTO 00000KT 10SM OVC018 16/16 A3006 RMK AO2
KCUL 230831Z AUTO 35003KT 10SM OVC018 16/16 A3007 RMK AO2
KCUL 230811Z AUTO 01004KT 7SM OVC018 16/15 A3007 RMK AO2
KCUL 230752Z AUTO 02005KT 7SM OVC018 16/16 A3006 RMK AO2
KCUL 230733Z AUTO 02004KT 10SM OVC020 16/16 A3007 RMK AO2
KCUL 230711Z AUTO 36004KT 4SM RA OVC022 16/15 A3007 RMK AO2
KCUL 230651Z AUTO 04004KT 7SM OVC022 16/16 A3007 RMK AO2
KCUL 230631Z AUTO 36004KT 10SM OVC024 16/16 A3007 RMK AO2
KCUL 230611Z AUTO 02005KT 10SM OVC024 16/15 A3008 RMK AO2
KCUL 230551Z AUTO 03004KT 10SM OVC027 16/15 A3008 RMK AO2
KCUL 230531Z AUTO 03006KT 10SM OVC029 16/15 A3008 RMK AO2
KCUL 230513Z AUTO 03004KT 10SM OVC029 16/15 A3010 RMK AO2
KCUL 230451Z AUTO 04004KT 10SM OVC029 16/16 A3010 RMK AO2
KCUL 230431Z AUTO 05006KT 7SM OVC031 16/15 A3011 RMK AO2
KCUL 230411Z AUTO 04006KT 7SM OVC031 16/15 A3010 RMK AO2
KCUL 230351Z AUTO 03005KT 5SM -DZ OVC031 16/15 A3012 RMK AO2
KCUL 230331Z AUTO 02005KT 5SM -RA OVC033 16/15 A3013 RMK AO2
KCUL 230313Z AUTO 02006KT 7SM -DZ OVC033 16/15 A3013 RMK AO2
KCUL 230251Z AUTO 02005KT 10SM SCT007 OVC033 16/15 A3014 RMK AO2
KCUL 230231Z AUTO 01005KT 10SM BKN007 OVC035 16/15 A3015 RMK AO2
KCUL 230211Z AUTO 02005KT 10SM SCT007 OVC035 16/15 A3014 RMK AO2
KCUL 230151Z AUTO 02004KT 7SM SCT009 OVC037 16/15 A3014 RMK AO2
KCUL 230131Z AUTO 02006KT 10SM BKN009 OVC037 16/15 A3014 RMK AO2
KCUL 230111Z AUTO 01007KT 7SM BKN009 OVC038 16/15 A3014 RMK AO2
KCUL 230051Z AUTO 01006KT 7SM BKN009 OVC038 16/15 A3015 RMK AO2
KCUL 230031Z AUTO 36006KT 5SM BR BKN009 OVC028 16/15 A3014 RMK AO2
KCUL 230011Z AUTO 01005KT 7SM SCT007 OVC028 16/15 A3013 RMK AO2
KCUL 222353Z AUTO 02007KT 7SM OVC007 16/15 A3013 RMK AO2
KCUL 222331Z AUTO 01004KT 10SM OVC007 16/16 A3013 RMK AO2
KCUL 222311Z AUTO 03006KT 7SM SCT007 BKN035 OVC050 16/16 A3013 RMK AO2
KCUL 222251Z AUTO 04005KT 7SM -DZ SCT007 BKN035 OVC044 16/16 A3013 RMK AO2 P0008
KCUL 222231Z AUTO 03005KT 4SM RA BKN007 OVC035 16/15 A3014 RMK AO2 P0007
KCUL 222211Z AUTO 03004KT 3SM RA SCT007 BKN013 OVC035 15/15 A3014 RMK AO2 P0004
KCUL 222151Z AUTO 03006KT 4SM RA BKN007 OVC012 15/15 A3013 RMK AO2 P0009
KCUL 222131Z AUTO 01006KT 5SM RA OVC007 16/15 A3014 RMK AO2 P0005
KCUL 222111Z AUTO 01005KT 4SM RA OVC009 16/15 A3014 RMK AO2 P0002
KCUL 222051Z AUTO 02004KT 5SM RA SCT009 BKN018 OVC085 16/15 A3014 RMK AO2 P0010
KCUL 222031Z AUTO 03006KT 4SM RA SCT070 OVC085 16/15 A3014 RMK AO2 P0006
KCUL 222011Z AUTO 03007KT 5SM RA SCT060 SCT070 OVC085 16/15 A3015 RMK AO2 P0002
KCUL 221951Z AUTO 03007KT 4SM RA SCT060 OVC075 16/15 A3015 RMK AO2 P0008
KCUL 221931Z AUTO 04007KT 4SM RA BKN065 OVC070 16/16 A3016 RMK AO2 P0004
KCUL 221911Z AUTO 03005KT 7SM RA SCT017 SCT033 OVC070 16/15 A3018 RMK AO2 P0001
KCUL 221851Z AUTO 02006KT 10SM RA SCT017 BKN070 OVC090 17/15 A3018 RMK AO2
KCUL 221831Z AUTO 03005KT 10SM -RA SCT060 OVC090 17/15 A3019 RMK AO2
KCUL 221812Z AUTO 04010KT 10SM -RA SCT055 BKN075 OVC090 17/14 A3020 RMK AO2
KCUL 221751Z AUTO 03006KT 10SM SCT016 SCT055 OVC100 17/14 A3020 RMK AO2
KCUL 221732Z AUTO 04006KT 10SM -RA SCT016 BKN070 OVC090 17/14 A3019 RMK AO2